Time;durP1;ratioP1;P1;durP2;ratioP2;P2;SDS_P1;SDS_P2;PMS_P1;PMS_P2;Temp;Humidity;BMP_temperature;BMP_pressure;BME280_temperature;BME280_humidity;BME280_pressure;Samples;Min_cycle;Max_cycle;Signal;HPM_P1;HPM_P2
2021/05/21 00:01:34;;;;;;;3.40;3.20;;;14.40;99.50;;;;;;4994932;28;20938;-73
2021/05/21 00:04:06;;;;;;;4.03;3.80;;;14.40;99.00;;;;;;4995506;28;20418;-73
2021/05/21 00:06:32;;;;;;;3.77;3.57;;;14.30;99.70;;;;;;4978907;28;20939;-73
2021/05/21 00:09:09;;;;;;;4.10;3.80;;;14.40;98.90;;;;;;5109419;27;20600;-75
2021/05/21 00:11:35;;;;;;;3.43;3.23;;;14.30;99.70;;;;;;5109883;28;20427;-75
2021/05/21 00:14:01;;;;;;;3.57;3.27;;;14.30;99.90;;;;;;5093624;28;20901;-75
2021/05/21 00:16:29;;;;;;;4.60;4.20;;;14.30;99.90;;;;;;5089374;28;20856;-74
2021/05/21 00:18:56;;;;;;;4.60;3.77;;;14.30;99.90;;;;;;5101357;28;20451;-74
2021/05/21 00:21:21;;;;;;;4.07;3.80;;;14.30;99.90;;;;;;5109768;28;20458;-74
2021/05/21 00:23:49;;;;;;;3.37;3.17;;;14.30;99.90;;;;;;5079336;28;20465;-75
2021/05/21 00:26:15;;;;;;;4.00;3.60;;;14.20;99.90;;;;;;5087509;28;20505;-74
2021/05/21 00:28:41;;;;;;;4.23;3.87;;;14.20;99.90;;;;;;5089547;28;20530;-75
2021/05/21 00:31:07;;;;;;;3.90;3.60;;;14.20;99.90;;;;;;5051258;28;20452;-75
2021/05/21 00:33:33;;;;;;;4.47;3.67;;;14.20;99.90;;;;;;5090790;28;20431;-75
2021/05/21 00:36:11;;;;;;;4.50;3.20;;;14.10;99.90;;;;;;5108626;28;20514;-75
2021/05/21 00:38:37;;;;;;;4.20;3.80;;;14.10;99.90;;;;;;5108252;28;20466;-75
2021/05/21 00:41:04;;;;;;;3.63;3.43;;;14.10;99.90;;;;;;5107871;28;20464;-75
2021/05/21 00:43:33;;;;;;;4.00;3.77;;;14.10;99.90;;;;;;5108173;28;20400;-75
2021/05/21 00:46:02;;;;;;;3.13;2.87;;;14.10;99.90;;;;;;5095036;28;21041;-74
2021/05/21 00:48:28;;;;;;;3.40;3.10;;;14.10;99.90;;;;;;5087935;28;20523;-75
2021/05/21 00:50:55;;;;;;;3.67;3.37;;;14.10;99.90;;;;;;5087333;28;20451;-75
2021/05/21 00:53:23;;;;;;;3.77;3.47;;;14.10;99.90;;;;;;5087717;28;20431;-75
2021/05/21 00:55:49;;;;;;;3.50;3.30;;;14.00;99.90;;;;;;5121172;28;20421;-74
2021/05/21 00:58:17;;;;;;;3.20;3.10;;;14.00;99.90;;;;;;5088663;28;20426;-74
2021/05/21 01:00:45;;;;;;;3.30;3.00;;;14.00;99.90;;;;;;5087557;28;20459;-75
2021/05/21 01:03:11;;;;;;;3.47;3.10;;;14.00;99.90;;;;;;5087672;28;20613;-75
2021/05/21 01:05:37;;;;;;;4.03;3.77;;;14.00;99.90;;;;;;5070738;28;20411;-74
2021/05/21 01:08:03;;;;;;;4.00;3.70;;;13.90;99.90;;;;;;5088264;28;21012;-75
2021/05/21 01:10:30;;;;;;;4.80;3.47;;;13.90;99.90;;;;;;5096124;28;20548;-75
2021/05/21 01:12:56;;;;;;;3.83;3.53;;;14.00;99.90;;;;;;5090861;28;20503;-75
2021/05/21 01:15:25;;;;;;;3.57;3.13;;;13.90;99.90;;;;;;5107392;28;20425;-75
2021/05/21 01:17:51;;;;;;;3.60;3.30;;;13.90;99.90;;;;;;5081737;28;20429;-74
2021/05/21 01:20:17;;;;;;;5.47;4.97;;;13.90;99.90;;;;;;5070479;28;20803;-75
2021/05/21 01:22:43;;;;;;;3.30;3.10;;;13.90;99.90;;;;;;5077179;28;20868;-75
2021/05/21 01:25:10;;;;;;;3.77;3.33;;;13.90;99.90;;;;;;5078117;28;20430;-75
2021/05/21 01:27:36;;;;;;;3.10;2.90;;;14.00;99.90;;;;;;5074525;28;20464;-75
2021/05/21 01:30:04;;;;;;;3.43;3.23;;;14.00;99.90;;;;;;5072980;28;20465;-75
2021/05/21 01:32:30;;;;;;;5.10;4.63;;;14.00;99.90;;;;;;5074493;28;20409;-75
2021/05/21 01:34:57;;;;;;;3.70;3.40;;;14.00;99.90;;;;;;5106127;28;20841;-75
2021/05/21 01:37:27;;;;;;;3.67;3.43;;;14.00;99.90;;;;;;5074227;28;20464;-74
2021/05/21 01:39:54;;;;;;;4.07;3.77;;;14.00;99.90;;;;;;5075886;28;20441;-75
2021/05/21 01:42:20;;;;;;;5.13;3.67;;;14.00;99.90;;;;;;5073057;28;20419;-75
2021/05/21 01:44:49;;;;;;;3.20;3.00;;;14.00;99.90;;;;;;5074107;28;20465;-75
2021/05/21 01:47:15;;;;;;;3.63;3.33;;;14.00;99.90;;;;;;5073144;28;20832;-74
2021/05/21 01:49:42;;;;;;;3.10;2.90;;;14.00;99.90;;;;;;5072238;28;20446;-75
2021/05/21 01:52:10;;;;;;;3.60;3.30;;;14.00;99.90;;;;;;5093108;28;20436;-75
2021/05/21 01:54:36;;;;;;;3.77;3.47;;;14.00;99.90;;;;;;5090234;28;20441;-75
2021/05/21 01:57:05;;;;;;;6.60;3.30;;;14.00;99.90;;;;;;5073212;28;20564;-75
2021/05/21 01:59:31;;;;;;;3.33;3.00;;;14.00;99.90;;;;;;5091401;28;20466;-75
2021/05/21 02:01:57;;;;;;;4.20;3.30;;;14.00;99.90;;;;;;5073801;28;20459;-75
2021/05/21 02:04:35;;;;;;;3.80;3.60;;;13.90;99.90;;;;;;5072910;28;20460;-75
2021/05/21 02:07:03;;;;;;;3.73;3.50;;;13.90;99.90;;;;;;5073848;28;20453;-75
2021/05/21 02:09:50;;;;;;;3.87;3.53;;;13.90;99.90;;;;;;5035992;28;20466;-75
2021/05/21 02:12:16;;;;;;;4.53;3.73;;;13.90;99.90;;;;;;5050308;28;20427;-75
2021/05/21 02:14:42;;;;;;;3.73;3.53;;;14.00;99.90;;;;;;5072869;28;20444;-74
2021/05/21 02:17:08;;;;;;;4.17;3.87;;;13.90;99.90;;;;;;5055684;28;20426;-74
2021/05/21 02:19:37;;;;;;;3.80;3.60;;;14.00;99.90;;;;;;5072132;28;20458;-75
2021/05/21 02:22:05;;;;;;;3.80;3.60;;;14.00;99.90;;;;;;5073684;28;20526;-75
2021/05/21 02:24:31;;;;;;;3.53;3.33;;;13.90;99.90;;;;;;5073820;28;20436;-75
2021/05/21 02:26:57;;;;;;;3.97;3.67;;;13.90;99.90;;;;;;5073420;28;20435;-74
2021/05/21 02:29:25;;;;;;;3.83;3.53;;;14.00;99.90;;;;;;5068676;28;20494;-74
2021/05/21 02:31:51;;;;;;;3.80;3.50;;;14.00;99.90;;;;;;5071906;28;20452;-74
2021/05/21 02:34:18;;;;;;;3.60;3.40;;;14.10;99.90;;;;;;5072614;28;20426;-75
2021/05/21 02:36:44;;;;;;;3.73;3.43;;;14.00;99.90;;;;;;5102173;28;20434;-75
2021/05/21 02:39:13;;;;;;;3.80;3.50;;;14.00;99.90;;;;;;5054943;28;20429;-75
2021/05/21 02:41:39;;;;;;;3.87;3.47;;;14.00;99.90;;;;;;5089311;28;21002;-75
2021/05/21 02:44:05;;;;;;;4.10;3.70;;;14.00;99.90;;;;;;5093351;28;20423;-74
2021/05/21 02:46:31;;;;;;;3.83;3.50;;;14.00;99.90;;;;;;5091785;28;20421;-74
2021/05/21 02:48:58;;;;;;;3.87;3.57;;;14.00;99.90;;;;;;5092422;28;20873;-75
2021/05/21 02:51:26;;;;;;;4.90;4.10;;;14.00;99.90;;;;;;5074747;28;20477;-75
2021/05/21 02:53:52;;;;;;;3.83;3.63;;;14.10;99.90;;;;;;5093395;28;20789;-74
2021/05/21 02:56:18;;;;;;;5.40;4.03;;;14.10;99.90;;;;;;5067649;28;20489;-75
2021/05/21 02:58:45;;;;;;;3.87;3.60;;;14.00;99.90;;;;;;5051869;28;20444;-75
2021/05/21 03:01:11;;;;;;;4.20;4.00;;;14.00;99.90;;;;;;5063694;22;20523;-73
2021/05/21 03:03:37;;;;;;;3.87;3.67;;;14.10;99.90;;;;;;5015370;28;20440;-73
2021/05/21 03:06:03;;;;;;;4.47;4.07;;;14.00;99.90;;;;;;5033293;28;20415;-73
2021/05/21 03:08:29;;;;;;;4.00;3.60;;;13.90;99.90;;;;;;5031972;28;20475;-73
2021/05/21 03:10:55;;;;;;;4.20;3.77;;;13.80;99.90;;;;;;5047444;28;20449;-73
2021/05/21 03:13:24;;;;;;;4.17;3.90;;;13.80;99.90;;;;;;5035542;28;20451;-72
2021/05/21 03:15:51;;;;;;;4.53;3.77;;;13.90;99.90;;;;;;5035829;28;20423;-73
2021/05/21 03:18:22;;;;;;;4.60;4.10;;;13.80;99.90;;;;;;5035840;28;20419;-73
2021/05/21 03:20:49;;;;;;;6.80;4.00;;;13.80;99.90;;;;;;5033703;28;20497;-73
2021/05/21 03:23:16;;;;;;;3.77;3.47;;;13.70;99.90;;;;;;5027791;28;20438;-73
2021/05/21 03:25:43;;;;;;;4.30;3.90;;;13.70;99.90;;;;;;5051893;28;20445;-73
2021/05/21 03:28:13;;;;;;;3.97;3.70;;;13.70;99.90;;;;;;5045665;28;21041;-72
2021/05/21 03:30:40;;;;;;;4.17;3.87;;;13.60;99.90;;;;;;5050115;28;20463;-73
2021/05/21 03:33:07;;;;;;;4.90;3.77;;;13.60;99.90;;;;;;5052602;28;20504;-73
2021/05/21 03:35:35;;;;;;;4.80;3.90;;;13.50;99.90;;;;;;5050937;28;20431;-72
2021/05/21 03:38:08;;;;;;;3.87;3.57;;;13.40;99.90;;;;;;5051366;28;20529;-73
2021/05/21 03:40:36;;;;;;;5.70;4.20;;;13.40;99.90;;;;;;5052593;28;20459;-73
2021/05/21 03:43:03;;;;;;;6.30;3.97;;;13.40;99.90;;;;;;5029693;28;20464;-74
2021/05/21 03:45:29;;;;;;;4.17;3.87;;;13.40;99.90;;;;;;5038989;28;20528;-73
2021/05/21 03:47:55;;;;;;;5.83;4.07;;;13.40;99.90;;;;;;5052845;28;20510;-73
2021/05/21 03:50:22;;;;;;;4.43;4.23;;;13.40;99.90;;;;;;5034125;28;20465;-73
2021/05/21 03:52:50;;;;;;;4.07;3.77;;;13.40;99.90;;;;;;5051304;28;20450;-73
2021/05/21 03:55:18;;;;;;;4.40;4.10;;;13.30;99.90;;;;;;5026914;28;20446;-72
2021/05/21 03:57:45;;;;;;;4.50;4.20;;;13.40;99.90;;;;;;5044166;28;20431;-73
2021/05/21 04:00:17;;;;;;;4.20;3.80;;;13.40;99.90;;;;;;5052402;28;20882;-73
2021/05/21 04:02:44;;;;;;;4.13;3.83;;;13.50;99.90;;;;;;5050662;28;20475;-73
2021/05/21 04:05:14;;;;;;;4.50;4.00;;;13.50;99.90;;;;;;5052301;28;20993;-73
2021/05/21 04:07:40;;;;;;;4.00;3.80;;;13.50;99.90;;;;;;5051202;28;20482;-73
2021/05/21 04:10:06;;;;;;;4.93;4.53;;;13.50;99.90;;;;;;5050578;28;20453;-73
2021/05/21 04:12:35;;;;;;;4.80;4.50;;;13.50;99.90;;;;;;5052687;28;20942;-73
2021/05/21 04:15:01;;;;;;;4.50;4.20;;;13.60;99.90;;;;;;5045967;28;20425;-73
2021/05/21 04:17:27;;;;;;;6.17;4.40;;;13.50;99.90;;;;;;5032475;28;20439;-72
2021/05/21 04:19:56;;;;;;;4.50;4.20;;;13.50;99.90;;;;;;5035156;28;20516;-73
2021/05/21 04:22:22;;;;;;;5.70;5.03;;;13.40;99.90;;;;;;5034748;28;20459;-73
2021/05/21 04:24:50;;;;;;;4.37;4.07;;;13.50;99.90;;;;;;5051477;28;20963;-73
2021/05/21 04:27:22;;;;;;;7.00;4.30;;;13.40;99.90;;;;;;5050345;28;20471;-73
2021/05/21 04:29:51;;;;;;;4.97;4.50;;;13.50;99.90;;;;;;5052267;28;20931;-72
2021/05/21 04:32:19;;;;;;;4.20;3.87;;;13.50;99.90;;;;;;5052245;28;20467;-73
2021/05/21 04:34:55;;;;;;;5.50;4.10;;;13.50;99.90;;;;;;5050684;28;20415;-72
2021/05/21 04:37:23;;;;;;;4.40;3.97;;;13.50;99.90;;;;;;5038636;28;20472;-73
2021/05/21 04:39:50;;;;;;;4.57;4.03;;;13.40;99.90;;;;;;5033432;28;20454;-73
2021/05/21 04:42:21;;;;;;;4.20;3.90;;;13.40;99.90;;;;;;5050221;28;20436;-73
2021/05/21 04:44:50;;;;;;;4.50;4.10;;;13.40;99.90;;;;;;5034275;28;20480;-74
2021/05/21 04:47:16;;;;;;;4.33;3.90;;;13.40;99.90;;;;;;5031876;28;20494;-73
2021/05/21 04:49:45;;;;;;;4.47;4.20;;;13.40;99.90;;;;;;5051663;28;20466;-73
2021/05/21 04:52:11;;;;;;;4.83;4.53;;;13.40;99.90;;;;;;5050299;28;20441;-73
2021/05/21 04:54:38;;;;;;;4.10;3.80;;;13.40;99.90;;;;;;5053492;28;20804;-74
2021/05/21 04:57:13;;;;;;;4.50;4.20;;;13.40;99.90;;;;;;5020958;28;20453;-73
2021/05/21 04:59:41;;;;;;;4.07;3.70;;;13.50;99.90;;;;;;5054114;28;20516;-73
2021/05/21 05:02:13;;;;;;;5.00;4.20;;;13.50;99.90;;;;;;5052477;28;21052;-73
2021/05/21 05:04:45;;;;;;;4.80;4.10;;;13.60;99.90;;;;;;5055053;28;20439;-73
2021/05/21 05:07:13;;;;;;;4.43;3.67;;;13.70;99.90;;;;;;5036962;28;20470;-73
2021/05/21 05:09:42;;;;;;;5.17;4.57;;;13.70;99.90;;;;;;5021044;28;20826;-73
2021/05/21 05:12:09;;;;;;;11.17;4.30;;;13.80;99.90;;;;;;5053927;28;20429;-73
2021/05/21 05:14:39;;;;;;;5.40;3.83;;;14.00;99.90;;;;;;5037646;28;20440;-73
2021/05/21 05:17:08;;;;;;;6.70;4.27;;;14.00;99.90;;;;;;5037378;28;20499;-73
2021/05/21 05:19:34;;;;;;;5.93;4.13;;;14.00;99.90;;;;;;5055179;28;20493;-73
2021/05/21 05:22:05;;;;;;;4.90;4.10;;;14.00;99.90;;;;;;5054964;28;20992;-73
2021/05/21 05:24:35;;;;;;;5.33;4.83;;;14.00;99.90;;;;;;5050166;28;20441;-74
2021/05/21 05:27:01;;;;;;;4.63;4.20;;;14.10;99.90;;;;;;5045743;28;20862;-74
2021/05/21 05:29:29;;;;;;;4.83;4.10;;;14.10;99.90;;;;;;5054347;28;20966;-73
2021/05/21 05:31:55;;;;;;;4.10;3.63;;;14.10;99.90;;;;;;5040193;28;20432;-73
2021/05/21 05:34:21;;;;;;;4.50;4.20;;;14.10;99.90;;;;;;5039166;28;20435;-74
2021/05/21 05:36:50;;;;;;;7.50;4.87;;;14.20;99.90;;;;;;5043062;28;20442;-74
2021/05/21 05:39:16;;;;;;;7.00;5.93;;;14.30;99.90;;;;;;5046700;28;20433;-73
2021/05/21 05:41:43;;;;;;;9.40;5.00;;;14.20;99.90;;;;;;5050072;28;20485;-74
2021/05/21 05:44:09;;;;;;;5.00;4.60;;;14.20;99.90;;;;;;5034805;28;20431;-74
2021/05/21 05:46:37;;;;;;;4.90;4.60;;;14.30;99.90;;;;;;5034492;28;20433;-74
2021/05/21 05:49:06;;;;;;;4.57;4.27;;;14.30;99.90;;;;;;5034170;28;20585;-74
2021/05/21 05:51:32;;;;;;;4.10;3.80;;;14.20;99.90;;;;;;5052582;28;20449;-74
2021/05/21 05:53:58;;;;;;;4.97;4.60;;;14.40;99.90;;;;;;5051506;28;20451;-74
2021/05/21 05:56:25;;;;;;;5.60;4.30;;;14.30;99.90;;;;;;5046105;28;20417;-74
2021/05/21 05:58:53;;;;;;;5.80;4.50;;;14.30;99.90;;;;;;5033778;28;20459;-74
2021/05/21 06:01:19;;;;;;;4.37;3.97;;;14.30;99.90;;;;;;5044128;28;20479;-74
2021/05/21 06:03:45;;;;;;;10.30;4.70;;;14.30;99.90;;;;;;5036391;28;20862;-74
2021/05/21 06:06:14;;;;;;;6.50;4.83;;;14.20;99.90;;;;;;5052147;28;20445;-73
2021/05/21 06:08:43;;;;;;;5.27;4.47;;;14.30;99.90;;;;;;5053488;28;20463;-74
2021/05/21 06:11:13;;;;;;;4.63;4.33;;;14.40;99.90;;;;;;5034883;28;20461;-74
2021/05/21 06:13:42;;;;;;;5.90;5.50;;;14.30;99.90;;;;;;5052787;28;20803;-74
2021/05/21 06:16:10;;;;;;;5.33;4.17;;;14.40;99.90;;;;;;5045723;28;20437;-74
2021/05/21 06:18:39;;;;;;;4.50;4.20;;;14.30;99.90;;;;;;5052564;28;20423;-73
2021/05/21 06:21:07;;;;;;;5.40;5.00;;;14.40;99.90;;;;;;5053355;28;20456;-74
2021/05/21 06:23:37;;;;;;;5.93;4.47;;;14.40;99.90;;;;;;5053958;28;20409;-74
2021/05/21 06:26:28;;;;;;;6.53;4.80;;;14.40;99.90;;;;;;5046987;28;20450;-74
2021/05/21 06:28:55;;;;;;;5.23;4.73;;;14.50;99.90;;;;;;5053638;28;20462;-73
2021/05/21 06:31:24;;;;;;;5.47;4.53;;;14.50;99.90;;;;;;5022357;28;20455;-74
2021/05/21 06:33:50;;;;;;;7.70;4.37;;;14.50;99.90;;;;;;5032594;28;20460;-73
2021/05/21 06:36:17;;;;;;;6.23;3.93;;;14.60;99.90;;;;;;5050748;28;20433;-74
2021/05/21 06:38:43;;;;;;;6.37;4.80;;;14.60;99.90;;;;;;5036865;28;20419;-75
2021/05/21 06:41:17;;;;;;;5.10;4.70;;;14.60;99.90;;;;;;5036739;28;20467;-75
2021/05/21 06:43:46;;;;;;;4.83;4.53;;;14.60;99.90;;;;;;5054623;28;20435;-76
2021/05/21 06:46:14;;;;;;;4.50;4.10;;;14.70;99.90;;;;;;5049330;28;20431;-75
2021/05/21 06:48:40;;;;;;;5.50;4.90;;;14.80;99.90;;;;;;5034106;28;20554;-75
2021/05/21 06:51:07;;;;;;;4.87;4.47;;;14.90;99.90;;;;;;5046277;28;20482;-74
2021/05/21 06:53:36;;;;;;;9.53;5.10;;;15.00;99.90;;;;;;5038177;28;20491;-75
2021/05/21 06:56:03;;;;;;;7.07;4.60;;;14.90;99.90;;;;;;5035995;28;20438;-75
2021/05/21 06:58:31;;;;;;;5.67;4.63;;;15.00;99.90;;;;;;5039491;28;20460;-76
2021/05/21 07:00:57;;;;;;;8.10;5.10;;;14.90;99.90;;;;;;5039275;28;20479;-75
2021/05/21 07:03:28;;;;;;;5.77;5.23;;;14.80;99.90;;;;;;5049569;28;20531;-76
2021/05/21 07:05:55;;;;;;;5.40;4.90;;;14.90;99.90;;;;;;5048402;28;20449;-76
2021/05/21 07:08:24;;;;;;;5.77;5.27;;;14.90;99.90;;;;;;5032439;28;20472;-76
2021/05/21 07:10:50;;;;;;;6.20;5.27;;;14.90;99.90;;;;;;5046186;28;20501;-76
2021/05/21 07:13:18;;;;;;;11.07;5.30;;;15.00;99.90;;;;;;5043427;28;20436;-75
2021/05/21 07:15:45;;;;;;;6.07;4.90;;;14.90;99.90;;;;;;5024288;28;20459;-76
2021/05/21 07:18:14;;;;;;;13.63;5.07;;;14.80;99.90;;;;;;5028546;28;20444;-76
2021/05/21 07:20:44;;;;;;;9.00;4.80;;;14.90;99.90;;;;;;5040571;28;20993;-75
2021/05/21 07:23:13;;;;;;;12.23;5.20;;;14.80;99.90;;;;;;5036741;28;20426;-76
2021/05/21 07:25:41;;;;;;;6.10;4.90;;;14.90;99.90;;;;;;5034656;28;20485;-76
2021/05/21 07:28:10;;;;;;;9.67;5.40;;;14.80;99.90;;;;;;5034277;28;20502;-75
2021/05/21 07:30:36;;;;;;;6.40;4.60;;;14.70;99.90;;;;;;5047482;28;20458;-76
2021/05/21 07:33:02;;;;;;;6.40;5.83;;;14.60;99.90;;;;;;5040056;28;20982;-75
2021/05/21 07:35:30;;;;;;;6.27;4.90;;;14.50;99.90;;;;;;5028706;28;20443;-74
2021/05/21 07:37:56;;;;;;;8.57;6.10;;;14.50;99.90;;;;;;5028764;28;20448;-76
2021/05/21 07:40:24;;;;;;;14.10;5.97;;;14.50;99.90;;;;;;5033653;28;20463;-75
2021/05/21 07:42:53;;;;;;;5.70;5.20;;;14.50;99.90;;;;;;5040303;28;20439;-76
2021/05/21 07:45:20;;;;;;;11.07;5.60;;;14.60;99.90;;;;;;5040356;28;21019;-76
2021/05/21 07:47:46;;;;;;;7.23;4.87;;;14.60;99.90;;;;;;5047728;28;20455;-75
2021/05/21 07:50:12;;;;;;;5.90;5.23;;;14.80;99.90;;;;;;5031305;28;20456;-76
2021/05/21 07:52:41;;;;;;;7.40;5.13;;;14.80;99.90;;;;;;5040959;28;20427;-76
2021/05/21 07:55:08;;;;;;;9.67;5.70;;;14.90;99.90;;;;;;5031366;28;20433;-76
2021/05/21 07:57:37;;;;;;;6.10;5.47;;;15.00;98.30;;;;;;5028077;28;20431;-76
2021/05/21 08:00:08;;;;;;;6.73;5.83;;;15.10;99.30;;;;;;5030857;28;20454;-76
2021/05/21 08:02:41;;;;;;;18.30;6.50;;;15.30;98.10;;;;;;5034317;28;20479;-77
2021/05/21 08:05:10;;;;;;;6.90;5.40;;;15.40;95.00;;;;;;5037955;28;20974;-76
2021/05/21 08:07:39;;;;;;;8.27;6.53;;;15.40;96.10;;;;;;5041072;28;20503;-75
2021/05/21 08:10:07;;;;;;;16.33;6.33;;;15.50;95.70;;;;;;5044651;28;20553;-76
2021/05/21 08:12:33;;;;;;;6.83;6.10;;;15.50;95.30;;;;;;5046564;28;20924;-77
2021/05/21 08:14:59;;;;;;;10.13;5.87;;;15.50;95.70;;;;;;5038091;28;20440;-75
2021/05/21 08:17:26;;;;;;;10.57;5.87;;;15.50;95.50;;;;;;5043292;28;20440;-75
2021/05/21 08:19:55;;;;;;;8.73;6.33;;;15.40;95.20;;;;;;5037480;28;20972;-76
2021/05/21 08:22:26;;;;;;;6.90;6.30;;;15.40;95.70;;;;;;5036457;28;20469;-76
2021/05/21 08:24:53;;;;;;;7.27;6.67;;;15.40;94.90;;;;;;5038260;28;20435;-76
2021/05/21 08:27:21;;;;;;;8.27;6.77;;;15.30;94.20;;;;;;5036088;28;20492;-77
2021/05/21 08:29:49;;;;;;;9.60;8.60;;;15.30;93.90;;;;;;5040787;28;20454;-78
2021/05/21 08:32:18;;;;;;;6.90;6.27;;;15.20;92.80;;;;;;5032224;28;20433;-77
2021/05/21 08:34:44;;;;;;;11.90;6.70;;;15.20;91.40;;;;;;5036068;28;20933;-77
2021/05/21 08:37:10;;;;;;;11.10;7.13;;;15.00;91.70;;;;;;5023170;28;20441;-77
2021/05/21 08:39:38;;;;;;;10.23;6.40;;;14.90;92.00;;;;;;5050125;28;20451;-76
2021/05/21 08:42:07;;;;;;;10.47;6.80;;;14.90;91.70;;;;;;5043243;28;20427;-78
2021/05/21 08:44:36;;;;;;;15.13;7.60;;;14.70;91.80;;;;;;5047568;28;20422;-77
2021/05/21 08:47:08;;;;;;;7.00;6.30;;;14.60;91.30;;;;;;5049968;28;20487;-78
2021/05/21 08:49:34;;;;;;;12.03;6.37;;;14.70;92.20;;;;;;5033572;28;21226;-77
2021/05/21 08:52:03;;;;;;;13.73;6.80;;;14.70;92.90;;;;;;5035258;28;21006;-76
2021/05/21 08:54:36;;;;;;;10.23;6.53;;;14.80;93.10;;;;;;5034871;28;20791;-77
2021/05/21 08:57:11;;;;;;;8.47;5.40;;;15.10;92.30;;;;;;5051024;28;20481;-77
2021/05/21 08:59:40;;;;;;;12.90;6.80;;;15.50;92.00;;;;;;5048153;28;20461;-77
2021/05/21 09:02:07;;;;;;;10.23;5.97;;;15.80;91.20;;;;;;5036364;28;20505;-76
2021/05/21 09:04:58;;;;;;;15.97;7.27;;;15.90;90.20;;;;;;5042162;28;20427;-77
2021/05/21 09:07:28;;;;;;;17.67;6.50;;;16.10;86.70;;;;;;5040675;28;20805;-77
2021/05/21 09:09:56;;;;;;;10.47;7.20;;;16.10;90.10;;;;;;5048215;28;20468;-77
2021/05/21 09:12:25;;;;;;;14.43;6.90;;;16.30;84.80;;;;;;5031831;28;20428;-76
2021/05/21 09:15:17;;;;;;;7.70;7.00;;;16.60;86.30;;;;;;5050233;28;20951;-76
2021/05/21 09:17:55;;;;;;;9.53;5.80;;;16.70;79.40;;;;;;5035105;28;20915;-76
2021/05/21 09:20:39;;;;;;;7.27;6.00;;;16.90;79.40;;;;;;5050976;28;20462;-77
2021/05/21 09:23:16;;;;;;;6.87;6.27;;;17.10;77.10;;;;;;5033084;28;20915;-78
2021/05/21 09:25:53;;;;;;;10.27;7.17;;;17.20;75.60;;;;;;5040600;28;20504;-77
2021/05/21 09:28:41;;;;;;;11.00;7.03;;;17.30;75.00;;;;;;5036703;28;20459;-77
2021/05/21 09:31:19;;;;;;;8.00;6.20;;;17.30;74.20;;;;;;5037546;28;20455;-77
2021/05/21 09:33:49;;;;;;;7.37;6.57;;;17.30;71.10;;;;;;5030332;28;20438;-76
2021/05/21 09:36:31;;;;;;;7.83;7.00;;;17.00;72.10;;;;;;5042265;28;20526;-76
2021/05/21 09:38:59;;;;;;;7.57;6.63;;;16.60;75.00;;;;;;5042905;28;20422;-76
2021/05/21 09:41:26;;;;;;;7.50;6.80;;;16.60;76.30;;;;;;5041708;28;20464;-77
2021/05/21 09:43:54;;;;;;;16.57;7.57;;;16.60;76.90;;;;;;5048037;28;20418;-77
2021/05/21 09:46:21;;;;;;;8.30;6.37;;;16.60;75.90;;;;;;5046367;28;20438;-76
2021/05/21 09:48:48;;;;;;;6.80;6.07;;;16.50;76.80;;;;;;5033632;28;20892;-77
2021/05/21 09:51:19;;;;;;;7.13;6.43;;;16.40;76.10;;;;;;5030792;28;20463;-76
2021/05/21 09:53:58;;;;;;;8.03;7.20;;;16.30;77.00;;;;;;5040157;28;20988;-77
2021/05/21 09:56:24;;;;;;;10.67;6.20;;;16.20;76.40;;;;;;5032925;28;20438;-77
2021/05/21 09:58:51;;;;;;;8.63;5.87;;;16.00;77.40;;;;;;5043580;28;20962;-76
2021/05/21 10:01:23;;;;;;;6.67;6.07;;;16.10;77.30;;;;;;5039233;28;20479;-77
2021/05/21 10:03:57;;;;;;;9.23;6.60;;;16.40;75.80;;;;;;5040667;28;20532;-78
2021/05/21 10:06:25;;;;;;;7.90;6.20;;;16.60;76.50;;;;;;5032879;28;20450;-76
2021/05/21 10:08:56;;;;;;;6.83;5.93;;;16.60;72.00;;;;;;5039948;28;20816;-77
2021/05/21 10:11:24;;;;;;;6.97;6.43;;;16.40;71.30;;;;;;5036981;28;20461;-78
2021/05/21 10:13:53;;;;;;;10.50;6.93;;;16.30;73.20;;;;;;5028694;28;20437;-76
2021/05/21 10:16:22;;;;;;;8.63;6.47;;;16.40;74.40;;;;;;5031701;28;20511;-77
2021/05/21 10:18:49;;;;;;;8.00;6.20;;;16.50;76.00;;;;;;5033448;28;21257;-76
2021/05/21 10:21:17;;;;;;;10.53;6.27;;;16.50;75.30;;;;;;5019718;28;20467;-76
2021/05/21 10:24:03;;;;;;;9.07;6.23;;;16.60;74.40;;;;;;5032750;28;20451;-76
2021/05/21 10:26:37;;;;;;;8.13;7.20;;;16.70;75.00;;;;;;5035685;28;20486;-77
2021/05/21 10:29:12;;;;;;;7.97;7.20;;;17.20;74.00;;;;;;5047672;28;20469;-76
2021/05/21 10:31:39;;;;;;;7.40;6.70;;;17.40;73.80;;;;;;5041214;28;20450;-76
2021/05/21 10:34:23;;;;;;;7.53;6.80;;;17.50;68.70;;;;;;5041772;28;20803;-76
2021/05/21 10:37:28;;;;;;;8.40;7.23;;;17.70;69.80;;;;;;5031593;28;20432;-76
2021/05/21 10:40:22;;;;;;;7.23;6.67;;;17.80;69.10;;;;;;5042341;28;20450;-78
2021/05/21 10:43:23;;;;;;;9.53;6.90;;;17.90;66.80;;;;;;5041695;28;20956;-76
2021/05/21 10:46:15;;;;;;;8.40;6.90;;;18.10;67.70;;;;;;5041368;28;20945;-77
2021/05/21 10:49:22;;;;;;;7.27;6.53;;;18.10;65.60;;;;;;5037878;28;20959;-77
2021/05/21 10:51:56;;;;;;;11.00;7.90;;;18.20;66.10;;;;;;5032850;28;20936;-80
2021/05/21 10:54:40;;;;;;;11.10;7.73;;;18.10;63.70;;;;;;5031930;28;20423;-78
2021/05/21 10:57:17;;;;;;;8.00;7.20;;;17.90;65.90;;;;;;5030848;28;20490;-76
2021/05/21 10:59:55;;;;;;;9.47;8.57;;;17.80;67.10;;;;;;5038553;28;20465;-76
2021/05/21 11:02:28;;;;;;;8.00;6.73;;;18.10;65.50;;;;;;5070231;22;20520;-83
2021/05/21 11:04:55;;;;;;;9.03;7.50;;;18.10;65.60;;;;;;5053237;28;20439;-82
2021/05/21 11:07:45;;;;;;;9.83;8.47;;;18.20;66.50;;;;;;5057209;28;20443;-82
2021/05/21 11:10:32;;;;;;;9.30;7.00;;;18.40;68.40;;;;;;5059017;28;20464;-80
2021/05/21 11:13:23;;;;;;;8.13;7.33;;;18.60;70.80;;;;;;5048172;28;20544;-81
2021/05/21 11:15:56;;;;;;;11.93;7.20;;;18.60;65.30;;;;;;5043684;28;20443;-79
2021/05/21 11:18:29;;;;;;;7.57;6.97;;;18.70;61.80;;;;;;5049026;28;20498;-81
2021/05/21 11:21:10;;;;;;;9.77;6.70;;;18.80;61.30;;;;;;5053304;28;20423;-79
2021/05/21 11:23:41;;;;;;;7.43;6.70;;;19.00;59.20;;;;;;5046690;28;20427;-79
2021/05/21 11:26:21;;;;;;;8.97;7.20;;;19.00;59.70;;;;;;5049573;28;20485;-81
2021/05/21 11:29:03;;;;;;;8.57;7.17;;;19.00;59.80;;;;;;5035665;28;20507;-82
2021/05/21 11:31:36;;;;;;;10.60;7.20;;;19.30;60.40;;;;;;5052314;28;20439;-81
2021/05/21 11:34:03;;;;;;;8.57;6.67;;;19.20;57.90;;;;;;5067803;28;20419;-81
2021/05/21 11:36:33;;;;;;;7.57;6.97;;;19.20;59.50;;;;;;5052777;28;20455;-82
2021/05/21 11:38:59;;;;;;;8.17;7.40;;;19.50;63.20;;;;;;5052524;28;20452;-79
2021/05/21 11:41:37;;;;;;;7.03;6.40;;;19.90;57.80;;;;;;5052403;28;20453;-81
2021/05/21 11:44:11;;;;;;;9.80;6.90;;;20.10;57.20;;;;;;5045792;28;20921;-81
2021/05/21 11:46:46;;;;;;;8.73;7.43;;;20.10;55.50;;;;;;5051750;28;20461;-81
2021/05/21 11:49:19;;;;;;;7.03;6.40;;;20.00;55.70;;;;;;5051929;28;20535;-81
2021/05/21 11:51:55;;;;;;;7.50;6.77;;;20.30;55.20;;;;;;5051807;28;20914;-81
2021/05/21 11:54:24;;;;;;;8.97;7.40;;;20.20;55.50;;;;;;5052447;28;20908;-80
2021/05/21 11:56:53;;;;;;;7.37;6.77;;;19.80;54.90;;;;;;5050921;28;20437;-80
2021/05/21 11:59:23;;;;;;;7.47;6.83;;;19.10;56.00;;;;;;5052010;28;20444;-82
2021/05/21 12:01:50;;;;;;;7.50;6.90;;;19.00;57.00;;;;;;5052674;28;20456;-81
2021/05/21 12:04:17;;;;;;;7.60;7.00;;;18.80;57.70;;;;;;5052386;28;20442;-80
2021/05/21 12:06:49;;;;;;;8.50;7.80;;;18.80;57.70;;;;;;5052062;28;20460;-83
2021/05/21 12:09:19;;;;;;;10.00;6.90;;;18.70;58.70;;;;;;5052225;28;20829;-81
2021/05/21 12:11:48;;;;;;;7.57;6.67;;;19.00;59.50;;;;;;5052049;28;20460;-81
2021/05/21 12:14:19;;;;;;;7.67;6.90;;;19.50;56.70;;;;;;5044586;28;20424;-81
2021/05/21 12:16:52;;;;;;;10.03;7.00;;;19.70;56.30;;;;;;5051709;28;20501;-81
2021/05/21 12:19:23;;;;;;;8.23;6.83;;;19.60;55.50;;;;;;5052370;28;20440;-81
2021/05/21 12:21:53;;;;;;;6.83;6.23;;;19.40;56.90;;;;;;5052032;28;20435;-81
2021/05/21 12:24:25;;;;;;;8.87;7.00;;;19.10;58.70;;;;;;5051373;28;20974;-79
2021/05/21 12:26:52;;;;;;;9.17;7.67;;;19.00;58.80;;;;;;5051073;28;20529;-80
2021/05/21 12:29:19;;;;;;;8.17;7.37;;;19.20;62.20;;;;;;5052119;28;20471;-80
2021/05/21 12:31:59;;;;;;;9.40;7.20;;;19.60;60.00;;;;;;5052531;28;20454;-81
2021/05/21 12:34:29;;;;;;;6.70;6.10;;;19.40;58.90;;;;;;5051510;28;20436;-79
2021/05/21 12:36:58;;;;;;;8.70;6.60;;;19.10;57.50;;;;;;5051220;28;20582;-87
2021/05/21 12:39:32;;;;;;;9.90;7.43;;;19.10;57.80;;;;;;5051595;28;20802;-79
2021/05/21 12:42:01;;;;;;;9.53;6.87;;;19.30;57.10;;;;;;5052178;28;20455;-80
2021/05/21 12:44:33;;;;;;;11.80;6.70;;;19.70;57.10;;;;;;5051904;28;20920;-80
2021/05/21 12:47:04;;;;;;;7.50;6.70;;;19.90;56.20;;;;;;5044195;28;20456;-81
2021/05/21 12:49:35;;;;;;;7.67;7.03;;;20.20;57.70;;;;;;5052149;28;20836;-80
2021/05/21 12:52:06;;;;;;;8.07;6.53;;;20.40;53.80;;;;;;5050623;28;20495;-81
2021/05/21 12:54:35;;;;;;;7.73;6.93;;;20.40;52.80;;;;;;5052722;28;20445;-79
2021/05/21 12:57:06;;;;;;;10.27;6.43;;;20.70;53.90;;;;;;5052144;28;20434;-84
2021/05/21 12:59:40;;;;;;;8.40;6.53;;;20.50;51.70;;;;;;5052127;28;20462;-79